Time;durP1;ratioP1;P1;durP2;ratioP2;P2;SDS_P1;SDS_P2;PMS_P1;PMS_P2;Temp;Humidity;BMP_temperature;BMP_pressure;BME280_temperature;BME280_humidity;BME280_pressure;Samples;Min_cycle;Max_cycle;Signal;HPM_P1;HPM_P2
2023/02/28 00:01:10;;;;;;;5.43;1.85;;;3.70;99.90;;;;;;5052716;28;20053;-56
2023/02/28 00:03:37;;;;;;;5.05;1.95;;;3.70;99.90;;;;;;5053442;28;20045;-55
2023/02/28 00:06:04;;;;;;;10.18;1.83;;;3.70;99.90;;;;;;5053839;28;20068;-57
2023/02/28 00:08:31;;;;;;;6.78;1.60;;;3.70;99.90;;;;;;5053786;28;20499;-52
2023/02/28 00:10:58;;;;;;;6.93;2.00;;;3.60;99.90;;;;;;5052658;28;20091;-51
2023/02/28 00:13:24;;;;;;;7.13;2.15;;;3.60;99.90;;;;;;5053549;28;20117;-52
2023/02/28 00:15:51;;;;;;;5.80;2.17;;;3.60;99.90;;;;;;5053406;28;20091;-54
2023/02/28 00:18:18;;;;;;;11.57;2.58;;;3.60;99.90;;;;;;5053551;28;20060;-54
2023/02/28 00:20:45;;;;;;;9.63;2.85;;;3.50;99.90;;;;;;5052775;28;20538;-55
2023/02/28 00:23:11;;;;;;;7.00;2.60;;;3.50;99.90;;;;;;5053038;28;20075;-57
2023/02/28 00:25:38;;;;;;;8.32;2.40;;;3.50;99.90;;;;;;5053575;28;20045;-57
2023/02/28 00:28:05;;;;;;;9.60;2.47;;;3.50;99.90;;;;;;5053770;28;20041;-57
2023/02/28 00:30:32;;;;;;;6.90;2.65;;;3.40;99.90;;;;;;5053405;28;20032;-56
2023/02/28 00:32:59;;;;;;;5.38;2.80;;;3.40;99.90;;;;;;5053250;28;20047;-54
2023/02/28 00:35:26;;;;;;;8.68;2.88;;;3.40;99.90;;;;;;5053501;28;20472;-55
2023/02/28 00:37:52;;;;;;;10.07;2.88;;;3.40;99.90;;;;;;5052009;28;20044;-56
2023/02/28 00:40:19;;;;;;;8.00;2.63;;;3.30;99.90;;;;;;5053335;28;20472;-55
2023/02/28 00:42:46;;;;;;;8.20;3.20;;;3.30;99.90;;;;;;5052197;28;20469;-57
2023/02/28 00:45:13;;;;;;;8.80;3.00;;;3.30;99.90;;;;;;5053278;28;20435;-56
2023/02/28 00:47:40;;;;;;;9.32;2.80;;;3.20;99.90;;;;;;5052425;28;20045;-55
2023/02/28 00:50:07;;;;;;;10.20;3.38;;;3.20;99.90;;;;;;5053017;28;20033;-55
2023/02/28 00:52:35;;;;;;;8.20;3.17;;;3.20;99.90;;;;;;5053022;28;20495;-58
2023/02/28 00:55:02;;;;;;;7.35;3.03;;;3.10;99.90;;;;;;5051979;28;20590;-54
2023/02/28 00:57:29;;;;;;;9.32;3.28;;;3.10;99.90;;;;;;5053546;28;20106;-56
2023/02/28 00:59:56;;;;;;;8.73;3.10;;;3.10;99.90;;;;;;5051936;28;20067;-54
2023/02/28 01:02:22;;;;;;;11.10;3.10;;;3.10;99.90;;;;;;5054885;28;20044;-56
2023/02/28 01:04:51;;;;;;;7.13;3.05;;;3.10;99.90;;;;;;5057143;28;20059;-58
2023/02/28 01:07:18;;;;;;;8.55;3.13;;;3.10;99.90;;;;;;5056934;28;20052;-55
2023/02/28 01:09:45;;;;;;;7.68;3.15;;;3.10;99.90;;;;;;5056359;28;20487;-56
2023/02/28 01:12:12;;;;;;;9.52;3.55;;;3.00;99.90;;;;;;5055562;28;20535;-54
2023/02/28 01:14:39;;;;;;;9.13;3.28;;;3.00;99.90;;;;;;5055879;28;20492;-57
2023/02/28 01:17:06;;;;;;;7.60;3.35;;;3.00;99.90;;;;;;5055681;28;20110;-52
2023/02/28 01:19:32;;;;;;;10.50;3.25;;;3.00;99.90;;;;;;5056553;28;20048;-53
2023/02/28 01:21:59;;;;;;;9.55;4.05;;;2.90;99.90;;;;;;5056552;28;20045;-53
2023/02/28 01:24:26;;;;;;;12.27;3.35;;;2.90;99.90;;;;;;5056902;28;20487;-52
2023/02/28 01:26:53;;;;;;;8.75;3.60;;;2.90;99.90;;;;;;5057048;28;20044;-54
2023/02/28 01:29:20;;;;;;;11.00;3.75;;;2.90;99.90;;;;;;5056665;28;20040;-49
2023/02/28 01:31:47;;;;;;;8.63;3.45;;;2.80;99.90;;;;;;5056647;28;20037;-51
2023/02/28 01:34:14;;;;;;;10.10;3.75;;;2.80;99.90;;;;;;5055240;28;20037;-56
2023/02/28 01:36:40;;;;;;;13.20;3.72;;;2.80;99.90;;;;;;5055130;28;20504;-52
2023/02/28 01:39:07;;;;;;;11.45;3.67;;;2.70;99.90;;;;;;5056499;28;20480;-56
2023/02/28 01:41:34;;;;;;;10.75;3.20;;;2.70;99.90;;;;;;5056596;28;20095;-57
2023/02/28 01:44:03;;;;;;;9.48;3.22;;;2.70;99.90;;;;;;5056636;28;20036;-57
2023/02/28 01:46:30;;;;;;;11.02;4.22;;;2.70;99.90;;;;;;5055169;28;20045;-56
2023/02/28 01:48:56;;;;;;;10.32;3.63;;;2.70;99.90;;;;;;5056317;28;20550;-58
2023/02/28 01:51:23;;;;;;;8.95;3.40;;;2.70;99.90;;;;;;5055343;28;20049;-57
2023/02/28 01:53:50;;;;;;;11.50;3.65;;;2.70;99.90;;;;;;5056203;28;20091;-55
2023/02/28 01:56:20;;;;;;;7.85;3.17;;;2.70;99.90;;;;;;5056130;28;20033;-58
2023/02/28 01:58:48;;;;;;;14.70;3.97;;;2.60;99.90;;;;;;5054660;28;20051;-53
2023/02/28 02:01:21;;;;;;;9.60;3.05;;;2.60;99.90;;;;;;5054751;28;20045;-50
2023/02/28 02:03:48;;;;;;;7.18;3.50;;;2.60;99.90;;;;;;5056296;28;20037;-52
2023/02/28 02:06:14;;;;;;;10.45;3.17;;;2.60;99.90;;;;;;5055710;28;20041;-52
2023/02/28 02:08:41;;;;;;;9.82;3.08;;;2.60;99.90;;;;;;5055697;28;20037;-53
2023/02/28 02:11:08;;;;;;;8.07;3.83;;;2.50;99.90;;;;;;5055902;28;20087;-49
2023/02/28 02:13:35;;;;;;;10.15;3.30;;;2.50;99.90;;;;;;5055093;28;20045;-54
2023/02/28 02:16:04;;;;;;;8.95;3.28;;;2.50;99.90;;;;;;5054661;28;20048;-52
2023/02/28 02:18:32;;;;;;;13.25;3.38;;;2.40;99.90;;;;;;5056103;28;20044;-50
2023/02/28 02:20:58;;;;;;;8.95;3.10;;;2.40;99.90;;;;;;5054555;28;20048;-49
2023/02/28 02:23:26;;;;;;;8.20;3.33;;;2.40;99.90;;;;;;5055673;28;20120;-54
2023/02/28 02:25:53;;;;;;;10.98;3.75;;;2.30;99.90;;;;;;5054524;28;20049;-54
2023/02/28 02:28:20;;;;;;;13.38;3.60;;;2.30;99.90;;;;;;5055742;28;20079;-53
2023/02/28 02:30:46;;;;;;;10.30;3.15;;;2.20;99.90;;;;;;5055768;28;20037;-51
2023/02/28 02:33:13;;;;;;;12.27;3.60;;;2.30;99.90;;;;;;5055887;28;20107;-49
2023/02/28 02:35:40;;;;;;;13.02;2.97;;;2.40;99.90;;;;;;5055409;28;20048;-57
2023/02/28 02:38:07;;;;;;;7.80;3.55;;;2.40;99.90;;;;;;5055723;28;20045;-50
2023/02/28 02:40:35;;;;;;;10.32;3.35;;;2.40;99.90;;;;;;5055641;28;20036;-51
2023/02/28 02:43:02;;;;;;;10.68;3.58;;;2.40;99.90;;;;;;5055616;28;20052;-50
2023/02/28 02:45:35;;;;;;;8.75;3.30;;;2.30;99.90;;;;;;5055524;28;20049;-54
2023/02/28 02:48:02;;;;;;;10.13;3.15;;;2.30;99.90;;;;;;5054048;28;20044;-50
2023/02/28 02:50:29;;;;;;;10.68;3.42;;;2.20;99.90;;;;;;5053609;28;20128;-54
2023/02/28 02:52:57;;;;;;;9.27;3.58;;;2.20;99.90;;;;;;5053761;28;20087;-53
2023/02/28 02:55:24;;;;;;;8.30;3.13;;;2.20;99.90;;;;;;5053901;28;20071;-52
2023/02/28 02:57:51;;;;;;;7.57;3.45;;;2.10;99.90;;;;;;5053589;28;20118;-56
2023/02/28 03:00:18;;;;;;;8.18;2.90;;;2.10;99.90;;;;;;5054771;28;20510;-52
2023/02/28 03:02:46;;;;;;;7.43;3.45;;;2.10;99.90;;;;;;5053680;28;20483;-54
2023/02/28 03:05:13;;;;;;;10.35;3.42;;;2.00;99.90;;;;;;5053604;28;20492;-57
2023/02/28 03:07:39;;;;;;;8.73;3.35;;;2.00;99.90;;;;;;5053703;28;20553;-50
2023/02/28 03:10:06;;;;;;;9.50;4.18;;;1.90;99.90;;;;;;5053546;28;20040;-51
2023/02/28 03:12:34;;;;;;;12.05;3.65;;;1.80;99.90;;;;;;5052969;28;20102;-51
2023/02/28 03:15:01;;;;;;;10.73;3.55;;;1.80;99.90;;;;;;5053700;28;20041;-51
2023/02/28 03:17:27;;;;;;;9.85;3.60;;;1.80;99.90;;;;;;5055041;28;20036;-52
2023/02/28 03:19:54;;;;;;;11.50;3.90;;;1.80;99.90;;;;;;5055046;28;20052;-52
2023/02/28 03:22:21;;;;;;;10.82;4.80;;;1.80;99.90;;;;;;5053388;28;20048;-55
2023/02/28 03:24:48;;;;;;;9.35;3.83;;;1.70;99.90;;;;;;5054750;28;20056;-53
2023/02/28 03:27:15;;;;;;;10.35;4.75;;;1.70;99.90;;;;;;5054306;28;20492;-53
2023/02/28 03:29:43;;;;;;;11.00;4.82;;;1.60;99.90;;;;;;5054464;28;20128;-55
2023/02/28 03:32:14;;;;;;;8.50;4.10;;;1.60;99.90;;;;;;5053382;28;20094;-53
2023/02/28 03:34:41;;;;;;;8.82;4.32;;;1.50;99.90;;;;;;5054185;28;20048;-51
2023/02/28 03:37:08;;;;;;;11.75;5.10;;;1.50;99.90;;;;;;5054369;28;20076;-48
2023/02/28 03:39:35;;;;;;;8.50;4.47;;;1.40;99.90;;;;;;5054223;28;20060;-56
2023/02/28 03:42:01;;;;;;;11.52;4.47;;;1.40;99.90;;;;;;5054170;28;20060;-51
2023/02/28 03:44:28;;;;;;;8.93;4.70;;;1.30;99.90;;;;;;5054041;28;20041;-50
2023/02/28 03:46:55;;;;;;;12.00;4.53;;;1.30;99.90;;;;;;5053026;28;20499;-51
2023/02/28 03:49:21;;;;;;;7.78;3.70;;;1.30;99.90;;;;;;5053107;28;20048;-57
2023/02/28 03:51:48;;;;;;;11.55;4.15;;;1.30;99.90;;;;;;5052807;28;20055;-55
2023/02/28 03:54:15;;;;;;;9.63;3.55;;;1.20;99.90;;;;;;5053741;28;20076;-51
2023/02/28 03:56:43;;;;;;;8.40;4.35;;;1.30;99.90;;;;;;5046332;28;20076;-49
2023/02/28 03:59:09;;;;;;;9.13;3.70;;;1.30;99.90;;;;;;5034214;28;20045;-53
2023/02/28 04:01:36;;;;;;;9.30;3.90;;;1.20;99.90;;;;;;5034281;28;20037;-48
2023/02/28 04:04:03;;;;;;;13.40;3.95;;;1.20;99.90;;;;;;5033880;28;20208;-49
2023/02/28 04:06:30;;;;;;;11.82;3.60;;;1.20;99.90;;;;;;5033953;28;20037;-48
2023/02/28 04:08:57;;;;;;;6.88;3.42;;;1.20;99.90;;;;;;5033539;28;20084;-51
2023/02/28 04:11:23;;;;;;;17.70;3.60;;;1.20;99.90;;;;;;5033460;28;20091;-48
2023/02/28 04:13:50;;;;;;;8.85;3.92;;;1.20;99.90;;;;;;5033524;28;20049;-48
2023/02/28 04:16:17;;;;;;;11.25;3.97;;;1.10;99.90;;;;;;5032747;28;20072;-53
2023/02/28 04:19:04;;;;;;;12.23;4.75;;;1.10;99.90;;;;;;5034108;28;20124;-51
2023/02/28 04:21:31;;;;;;;10.50;4.70;;;1.20;99.90;;;;;;5033483;28;20045;-50
2023/02/28 04:24:00;;;;;;;10.10;4.22;;;1.10;99.90;;;;;;5033533;28;20373;-49
2023/02/28 04:26:27;;;;;;;10.13;4.18;;;1.20;99.90;;;;;;5033646;28;20045;-53
2023/02/28 04:28:54;;;;;;;8.40;4.60;;;1.10;99.90;;;;;;5031990;28;20042;-50
2023/02/28 04:31:20;;;;;;;10.52;4.22;;;1.10;99.90;;;;;;5032165;28;20073;-51
2023/02/28 04:33:47;;;;;;;11.48;3.95;;;1.10;99.90;;;;;;5033598;28;20048;-49
2023/02/28 04:36:14;;;;;;;12.40;3.40;;;1.10;99.90;;;;;;5033037;28;20104;-50
2023/02/28 04:38:41;;;;;;;9.82;3.40;;;1.20;99.90;;;;;;5033610;28;20050;-51
2023/02/28 04:41:07;;;;;;;11.30;3.80;;;1.20;99.90;;;;;;5033451;28;20104;-48
2023/02/28 04:43:34;;;;;;;8.43;3.20;;;1.30;99.90;;;;;;5033597;28;20132;-52
2023/02/28 04:46:01;;;;;;;9.52;3.33;;;1.40;99.90;;;;;;5033811;28;20453;-49
2023/02/28 04:48:28;;;;;;;8.77;2.85;;;1.40;99.90;;;;;;5032221;28;20073;-48
2023/02/28 04:50:54;;;;;;;8.73;3.08;;;1.50;99.90;;;;;;5033136;28;20069;-49
2023/02/28 04:53:21;;;;;;;15.73;4.00;;;1.50;99.90;;;;;;5033105;28;20068;-49
2023/02/28 04:55:48;;;;;;;10.40;3.63;;;1.60;99.90;;;;;;5033150;28;20033;-51
2023/02/28 04:58:15;;;;;;;8.70;3.05;;;1.60;99.90;;;;;;5033054;28;20443;-52
2023/02/28 05:00:41;;;;;;;12.25;3.60;;;1.60;99.90;;;;;;5032798;28;20045;-49
2023/02/28 05:03:09;;;;;;;8.93;3.00;;;1.60;99.90;;;;;;5033024;28;20041;-50
2023/02/28 05:05:36;;;;;;;9.43;3.67;;;1.60;99.90;;;;;;5033559;28;20053;-53
2023/02/28 05:08:05;;;;;;;10.38;3.30;;;1.60;99.90;;;;;;5033101;28;20037;-50
2023/02/28 05:10:31;;;;;;;7.30;3.50;;;1.70;99.90;;;;;;5031545;28;20042;-50
2023/02/28 05:12:58;;;;;;;6.80;3.05;;;1.60;99.90;;;;;;5032598;28;20057;-52
2023/02/28 05:15:25;;;;;;;11.60;3.40;;;1.60;99.90;;;;;;5033379;28;20080;-51
2023/02/28 05:17:52;;;;;;;11.40;3.80;;;1.60;99.90;;;;;;5031770;28;20492;-51
2023/02/28 05:20:18;;;;;;;10.10;3.33;;;1.60;99.90;;;;;;5032117;28;20053;-50
2023/02/28 05:22:45;;;;;;;10.32;3.97;;;1.60;99.90;;;;;;5032968;28;20096;-51
2023/02/28 05:25:12;;;;;;;8.25;3.30;;;1.60;99.90;;;;;;5032912;28;20052;-55
2023/02/28 05:27:39;;;;;;;8.77;3.08;;;1.60;99.90;;;;;;5032753;28;20095;-49
2023/02/28 05:30:06;;;;;;;10.38;3.35;;;1.60;99.90;;;;;;5033356;28;20068;-50
2023/02/28 05:32:32;;;;;;;12.25;4.78;;;1.60;99.90;;;;;;5033018;28;20038;-51
2023/02/28 05:34:59;;;;;;;15.52;3.80;;;1.60;99.90;;;;;;5032957;28;20052;-50
2023/02/28 05:37:26;;;;;;;10.82;3.30;;;1.60;99.90;;;;;;5032717;28;20048;-48
2023/02/28 05:39:52;;;;;;;13.35;4.00;;;1.60;99.90;;;;;;5032911;28;20041;-51
2023/02/28 05:42:19;;;;;;;17.80;5.55;;;1.60;99.90;;;;;;5032529;28;20045;-48
2023/02/28 05:44:46;;;;;;;11.75;3.58;;;1.60;99.90;;;;;;5032331;28;20044;-52
2023/02/28 05:47:15;;;;;;;9.13;3.65;;;1.60;99.90;;;;;;5032947;28;20045;-51
2023/02/28 05:49:42;;;;;;;11.85;4.03;;;1.60;99.90;;;;;;5034953;28;20056;-51
2023/02/28 05:52:08;;;;;;;11.70;3.38;;;1.70;99.90;;;;;;5036435;28;20041;-51
2023/02/28 05:54:35;;;;;;;8.38;3.78;;;1.70;99.90;;;;;;5036519;28;20037;-51
2023/02/28 05:57:02;;;;;;;8.95;3.72;;;1.70;99.90;;;;;;5035245;28;20038;-51
2023/02/28 05:59:39;;;;;;;9.32;4.00;;;1.80;99.90;;;;;;5036072;28;20045;-51
2023/02/28 06:02:06;;;;;;;11.98;4.13;;;1.80;99.90;;;;;;5036272;28;20041;-52
2023/02/28 06:04:33;;;;;;;11.30;3.83;;;1.90;99.90;;;;;;5035784;28;20041;-49
2023/02/28 06:07:00;;;;;;;10.43;4.40;;;1.90;99.90;;;;;;5035835;28;20046;-50
2023/02/28 06:09:26;;;;;;;10.80;4.47;;;1.90;99.90;;;;;;5035886;28;20061;-49
2023/02/28 06:11:53;;;;;;;14.93;4.25;;;1.90;99.90;;;;;;5035645;28;20057;-49
2023/02/28 06:14:20;;;;;;;10.15;4.10;;;2.00;99.90;;;;;;5036134;28;20046;-50
2023/02/28 06:16:47;;;;;;;10.35;4.00;;;2.00;99.90;;;;;;5036191;28;20461;-48
2023/02/28 06:19:15;;;;;;;9.35;4.30;;;2.00;99.90;;;;;;5035703;28;20068;-49
2023/02/28 06:21:41;;;;;;;11.07;4.53;;;2.00;99.90;;;;;;5034826;28;20049;-50
2023/02/28 06:24:08;;;;;;;14.02;4.55;;;2.00;99.90;;;;;;5034248;28;20140;-51
2023/02/28 06:26:35;;;;;;;10.90;4.63;;;2.00;99.90;;;;;;5035960;28;20056;-49
2023/02/28 06:29:02;;;;;;;12.00;4.60;;;2.00;99.90;;;;;;5035476;28;20037;-51
2023/02/28 06:31:29;;;;;;;11.80;5.25;;;2.00;99.90;;;;;;5035589;28;20069;-52
2023/02/28 06:33:56;;;;;;;9.60;4.80;;;2.00;99.90;;;;;;5035618;28;20037;-49
2023/02/28 06:36:23;;;;;;;12.20;5.00;;;2.00;99.90;;;;;;5036024;28;20037;-52
2023/02/28 06:38:54;;;;;;;8.93;4.82;;;2.10;99.90;;;;;;5035275;28;20392;-48
2023/02/28 06:41:21;;;;;;;9.70;4.78;;;2.10;99.90;;;;;;5035632;28;20108;-49
2023/02/28 06:43:48;;;;;;;8.38;4.70;;;2.10;99.90;;;;;;5035399;28;20045;-50
2023/02/28 06:46:14;;;;;;;12.50;6.00;;;2.20;99.90;;;;;;5035063;28;20068;-50
2023/02/28 06:48:41;;;;;;;14.13;6.38;;;2.20;99.90;;;;;;5035455;28;20045;-49
2023/02/28 06:51:08;;;;;;;9.60;5.13;;;2.20;99.90;;;;;;5035730;28;20045;-51
2023/02/28 06:53:35;;;;;;;11.85;5.43;;;2.30;99.90;;;;;;5035243;28;20095;-50
2023/02/28 06:56:01;;;;;;;10.65;5.57;;;2.30;99.90;;;;;;5035278;28;20412;-50
2023/02/28 06:58:28;;;;;;;12.52;5.20;;;2.30;99.90;;;;;;5035192;28;20049;-53
2023/02/28 07:00:56;;;;;;;10.52;5.57;;;2.30;99.90;;;;;;5034604;28;20045;-53
2023/02/28 07:03:23;;;;;;;9.68;5.20;;;2.40;99.90;;;;;;5034079;28;20099;-51
2023/02/28 07:05:49;;;;;;;13.15;5.60;;;2.40;99.90;;;;;;5034842;28;20045;-48
2023/02/28 07:08:16;;;;;;;13.27;5.97;;;2.40;99.90;;;;;;5035354;28;20048;-49
2023/02/28 07:10:43;;;;;;;10.40;5.78;;;2.40;99.90;;;;;;5034658;28;20049;-48
2023/02/28 07:13:10;;;;;;;13.20;5.30;;;2.40;99.90;;;;;;5034428;28;20050;-56
2023/02/28 07:15:37;;;;;;;10.05;5.60;;;2.40;99.90;;;;;;5034692;28;20064;-51
2023/02/28 07:18:07;;;;;;;11.48;5.47;;;2.50;99.90;;;;;;5035141;28;20080;-51
2023/02/28 07:20:34;;;;;;;9.57;5.20;;;2.50;99.90;;;;;;5035044;28;20055;-51
2023/02/28 07:23:01;;;;;;;10.98;5.38;;;2.50;99.90;;;;;;5034887;28;20095;-53
2023/02/28 07:25:28;;;;;;;11.52;5.40;;;2.60;99.90;;;;;;5035065;28;20052;-54
2023/02/28 07:27:55;;;;;;;10.52;5.20;;;2.60;99.90;;;;;;5033171;28;20111;-53
2023/02/28 07:30:21;;;;;;;11.75;5.18;;;2.60;99.90;;;;;;5034578;28;20346;-54
2023/02/28 07:32:48;;;;;;;10.73;5.90;;;2.60;99.90;;;;;;5034594;28;20119;-52
2023/02/28 07:35:15;;;;;;;9.68;5.43;;;2.70;99.90;;;;;;5034168;28;20037;-51
2023/02/28 07:37:42;;;;;;;8.65;5.13;;;2.70;99.90;;;;;;5033467;28;20126;-52
2023/02/28 07:40:09;;;;;;;10.07;5.65;;;2.70;99.90;;;;;;5037091;28;20076;-54
2023/02/28 07:42:36;;;;;;;12.23;6.10;;;2.70;99.90;;;;;;5034886;28;20041;-54
2023/02/28 07:45:03;;;;;;;8.93;5.45;;;2.70;99.90;;;;;;5034656;28;20041;-50
2023/02/28 07:47:30;;;;;;;8.77;5.65;;;2.70;99.90;;;;;;5034489;28;20042;-56
2023/02/28 07:49:57;;;;;;;7.00;5.40;;;2.80;99.90;;;;;;5034457;28;20419;-54
2023/02/28 07:52:23;;;;;;;9.20;5.30;;;2.90;99.90;;;;;;5025227;28;20084;-51
2023/02/28 07:54:50;;;;;;;9.50;5.40;;;2.90;99.90;;;;;;5023236;28;20042;-55
2023/02/28 07:57:17;;;;;;;8.48;5.20;;;2.90;99.90;;;;;;5024824;28;20041;-52
2023/02/28 07:59:43;;;;;;;11.45;5.68;;;3.00;99.90;;;;;;5023306;28;20088;-57
2023/02/28 08:02:11;;;;;;;10.02;5.55;;;3.00;99.90;;;;;;5017462;28;20037;-54
2023/02/28 08:04:38;;;;;;;9.05;5.53;;;3.10;99.90;;;;;;5013945;28;20409;-53
2023/02/28 08:07:05;;;;;;;8.18;5.40;;;3.10;99.90;;;;;;5022011;28;20396;-56
2023/02/28 08:09:35;;;;;;;11.05;5.78;;;3.20;99.90;;;;;;5024178;28;20048;-54
2023/02/28 08:12:02;;;;;;;9.43;5.75;;;3.20;99.90;;;;;;5023253;28;20436;-56
2023/02/28 08:14:32;;;;;;;9.43;5.22;;;3.30;99.90;;;;;;5010575;28;20470;-51
2023/02/28 08:16:59;;;;;;;7.22;4.82;;;3.30;99.90;;;;;;5034211;28;20045;-52
2023/02/28 08:19:26;;;;;;;9.55;5.57;;;3.30;99.90;;;;;;5033848;28;20124;-53
2023/02/28 08:21:53;;;;;;;8.88;4.85;;;3.40;99.90;;;;;;5032640;28;20155;-53
2023/02/28 08:24:23;;;;;;;9.27;4.93;;;3.40;99.90;;;;;;5033949;28;20124;-56
2023/02/28 08:26:50;;;;;;;8.30;5.25;;;3.50;99.90;;;;;;5034032;28;20045;-52
2023/02/28 08:29:20;;;;;;;7.45;4.60;;;3.50;99.90;;;;;;5033256;28;20400;-49
2023/02/28 08:31:47;;;;;;;7.10;4.32;;;3.60;99.90;;;;;;5033664;28;20044;-50
2023/02/28 08:34:13;;;;;;;7.47;4.53;;;3.60;99.90;;;;;;5033643;28;20128;-50
2023/02/28 08:36:40;;;;;;;5.60;4.05;;;3.70;99.90;;;;;;5032401;28;20030;-54
2023/02/28 08:39:07;;;;;;;10.43;4.82;;;3.70;99.90;;;;;;5033482;28;20049;-51
2023/02/28 08:41:34;;;;;;;7.10;4.10;;;3.80;99.90;;;;;;5032926;28;20349;-55
2023/02/28 08:44:01;;;;;;;4.93;3.60;;;4.00;99.90;;;;;;5032605;28;20457;-50
2023/02/28 08:46:28;;;;;;;5.57;3.55;;;4.00;99.90;;;;;;5032119;28;20049;-53
2023/02/28 08:48:54;;;;;;;4.75;2.80;;;4.10;99.90;;;;;;5033417;28;20056;-55
2023/02/28 08:51:25;;;;;;;6.00;3.20;;;4.20;99.90;;;;;;5032805;28;20164;-57
2023/02/28 08:53:53;;;;;;;6.60;3.85;;;4.20;99.90;;;;;;5031237;28;20140;-54
2023/02/28 08:56:20;;;;;;;6.28;3.65;;;4.30;99.90;;;;;;5031741;28;20080;-56
2023/02/28 08:58:47;;;;;;;6.85;3.78;;;4.40;99.90;;;;;;5031780;28;20049;-52
2023/02/28 09:01:13;;;;;;;6.65;4.00;;;4.50;99.90;;;;;;5030286;28;20648;-56
2023/02/28 09:03:43;;;;;;;7.72;4.10;;;4.50;99.90;;;;;;5031481;28;20048;-58
2023/02/28 09:06:10;;;;;;;6.70;3.97;;;4.60;99.90;;;;;;5031709;28;20084;-58
2023/02/28 09:08:37;;;;;;;6.72;3.35;;;4.60;99.90;;;;;;5032593;28;20041;-57
2023/02/28 09:11:04;;;;;;;7.13;3.25;;;4.60;99.90;;;;;;5032683;28;20076;-51
2023/02/28 09:13:32;;;;;;;4.75;3.50;;;4.70;99.90;;;;;;5032556;28;20092;-57
2023/02/28 09:15:58;;;;;;;5.93;3.30;;;4.70;99.90;;;;;;5032833;28;20116;-52
2023/02/28 09:18:25;;;;;;;5.15;3.35;;;4.70;99.90;;;;;;5032669;28;20057;-56
2023/02/28 09:20:52;;;;;;;5.20;3.42;;;4.80;99.90;;;;;;5031358;28;20401;-57
2023/02/28 09:23:19;;;;;;;4.10;3.13;;;4.80;99.90;;;;;;5035502;28;20107;-55
2023/02/28 09:25:46;;;;;;;5.28;3.50;;;4.80;99.90;;;;;;5036641;28;20042;-54
2023/02/28 09:28:14;;;;;;;6.85;3.45;;;4.80;99.90;;;;;;5036534;28;20052;-54
2023/02/28 09:30:40;;;;;;;5.45;3.08;;;4.90;99.90;;;;;;5036537;28;20052;-55
2023/02/28 09:33:07;;;;;;;14.20;3.40;;;4.90;99.90;;;;;;5035623;28;20061;-50
2023/02/28 09:35:34;;;;;;;5.88;3.13;;;5.00;99.90;;;;;;5036121;28;20037;-49
2023/02/28 09:38:02;;;;;;;5.70;3.03;;;5.10;99.90;;;;;;5036112;28;20132;-54
2023/02/28 09:40:30;;;;;;;5.85;2.42;;;5.20;99.90;;;;;;5035425;28;20057;-53
2023/02/28 09:42:57;;;;;;;10.13;2.25;;;5.30;99.90;;;;;;5035633;28;20041;-58
2023/02/28 09:45:23;;;;;;;7.78;2.83;;;5.30;99.90;;;;;;5035866;28;20072;-57
2023/02/28 09:47:50;;;;;;;3.50;2.20;;;5.40;99.90;;;;;;5035815;28;20425;-56
2023/02/28 09:50:17;;;;;;;5.20;2.83;;;5.40;99.90;;;;;;5036099;28;20046;-57
2023/02/28 09:52:44;;;;;;;7.97;3.33;;;5.40;99.90;;;;;;5035717;28;20041;-55
2023/02/28 09:55:10;;;;;;;5.95;2.40;;;5.50;99.90;;;;;;5035750;28;20042;-55
2023/02/28 09:57:38;;;;;;;5.95;2.85;;;5.50;99.90;;;;;;5036026;28;20096;-55
2023/02/28 10:00:10;;;;;;;12.82;6.00;;;5.50;99.90;;;;;;5036065;28;20401;-54
2023/02/28 10:02:40;;;;;;;5.80;2.60;;;5.50;99.90;;;;;;5034628;28;20053;-53
2023/02/28 10:05:07;;;;;;;36.70;28.83;;;5.60;99.90;;;;;;5035532;28;20493;-58
2023/02/28 10:07:33;;;;;;;8.13;4.55;;;5.60;99.90;;;;;;5035790;28;20046;-52
2023/02/28 10:10:00;;;;;;;6.15;3.17;;;5.60;99.90;;;;;;5035794;28;20042;-57
2023/02/28 10:12:27;;;;;;;5.47;2.30;;;5.70;99.90;;;;;;5035083;28;20060;-57
2023/02/28 10:14:54;;;;;;;4.97;2.17;;;5.70;99.90;;;;;;5035412;28;20048;-55
2023/02/28 10:17:21;;;;;;;6.07;2.83;;;5.70;99.90;;;;;;5035636;28;20380;-56
2023/02/28 10:19:47;;;;;;;7.30;4.07;;;5.70;99.90;;;;;;5035750;28;20053;-53
2023/02/28 10:22:14;;;;;;;8.40;5.55;;;5.70;99.90;;;;;;5035435;28;20122;-55
2023/02/28 10:24:41;;;;;;;5.32;2.00;;;5.70;99.90;;;;;;5035255;28;20095;-55
2023/02/28 10:27:08;;;;;;;3.08;1.92;;;5.80;99.90;;;;;;5035383;28;20507;-57
2023/02/28 10:29:35;;;;;;;6.18;1.70;;;5.80;99.90;;;;;;5035157;28;20065;-54
2023/02/28 10:32:02;;;;;;;4.32;2.10;;;5.80;99.90;;;;;;5034944;28;20423;-54
2023/02/28 10:34:29;;;;;;;5.60;1.77;;;5.80;99.90;;;;;;5034347;28;20038;-55
2023/02/28 10:36:55;;;;;;;4.50;1.83;;;5.80;99.90;;;;;;5035187;28;20091;-56
2023/02/28 10:39:22;;;;;;;4.07;1.88;;;5.90;99.90;;;;;;5035347;28;20432;-54
2023/02/28 10:41:49;;;;;;;3.08;1.60;;;5.90;99.90;;;;;;5035181;28;20409;-56
2023/02/28 10:44:16;;;;;;;2.45;1.63;;;5.90;99.90;;;;;;5035002;28;20065;-55
2023/02/28 10:46:43;;;;;;;2.78;1.67;;;5.90;99.90;;;;;;5033866;28;20136;-56
2023/02/28 10:49:09;;;;;;;4.50;1.90;;;5.90;99.90;;;;;;5035078;28;20056;-55
2023/02/28 10:51:36;;;;;;;3.92;2.00;;;5.90;99.90;;;;;;5035215;28;20049;-55
2023/02/28 10:54:03;;;;;;;4.05;1.77;;;6.00;99.90;;;;;;5035081;28;20091;-54
2023/02/28 10:56:30;;;;;;;2.75;1.80;;;6.00;99.90;;;;;;5034764;28;20072;-52
2023/02/28 10:58:57;;;;;;;7.60;1.67;;;6.00;99.90;;;;;;5034664;28;20045;-55
2023/02/28 11:01:24;;;;;;;3.00;1.92;;;6.10;99.90;;;;;;5034689;28;20492;-50
2023/02/28 11:03:51;;;;;;;4.35;1.70;;;6.10;99.90;;;;;;5034244;28;20045;-54
2023/02/28 11:06:18;;;;;;;4.68;1.83;;;6.10;99.90;;;;;;5033604;28;20046;-53
2023/02/28 11:08:45;;;;;;;4.85;1.80;;;6.10;99.90;;;;;;5034833;28;20045;-55
2023/02/28 11:11:11;;;;;;;5.72;1.73;;;6.20;99.90;;;;;;5034395;28;20068;-55
2023/02/28 11:13:38;;;;;;;6.22;4.05;;;6.10;99.90;;;;;;5034338;28;20432;-53
2023/02/28 11:16:05;;;;;;;4.32;1.80;;;6.10;99.90;;;;;;5034086;28;20439;-54
2023/02/28 11:18:32;;;;;;;3.67;1.88;;;6.10;99.90;;;;;;5034559;28;20064;-54
2023/02/28 11:20:58;;;;;;;2.92;1.80;;;6.10;99.90;;;;;;5034378;28;20046;-53
2023/02/28 11:23:25;;;;;;;3.33;1.20;;;6.10;99.90;;;;;;5034313;28;20555;-51
2023/02/28 11:25:56;;;;;;;3.25;1.77;;;6.10;99.90;;;;;;5034076;28;20064;-54
2023/02/28 11:28:23;;;;;;;2.47;1.52;;;6.20;99.90;;;;;;5033002;28;20069;-52
2023/02/28 11:30:50;;;;;;;5.20;2.42;;;6.20;99.90;;;;;;5034088;28;20072;-48
2023/02/28 11:33:17;;;;;;;5.03;2.28;;;6.20;99.90;;;;;;5034087;28;20455;-54
2023/02/28 11:35:43;;;;;;;8.70;4.97;;;6.20;99.90;;;;;;5032632;28;20037;-54
2023/02/28 11:38:10;;;;;;;3.17;2.10;;;6.30;99.90;;;;;;5034149;28;20376;-57
2023/02/28 11:40:37;;;;;;;4.50;2.00;;;6.20;99.90;;;;;;5033846;28;20555;-55
2023/02/28 11:43:05;;;;;;;4.53;2.08;;;6.20;99.90;;;;;;5033650;28;20049;-55
2023/02/28 11:45:31;;;;;;;3.40;2.28;;;6.20;99.90;;;;;;5033425;28;20125;-55
2023/02/28 11:47:58;;;;;;;4.00;2.13;;;6.20;99.90;;;;;;5033597;28;20520;-55
2023/02/28 11:50:25;;;;;;;9.88;5.35;;;6.10;99.90;;;;;;5033902;28;20061;-52
2023/02/28 11:52:52;;;;;;;4.63;2.42;;;6.20;99.90;;;;;;5033139;28;20033;-54
2023/02/28 11:55:19;;;;;;;3.05;2.10;;;6.20;99.90;;;;;;5033332;28;20048;-55
2023/02/28 11:57:45;;;;;;;3.90;2.10;;;6.30;99.90;;;;;;5032784;28;20037;-52
2023/02/28 12:00:12;;;;;;;3.42;1.90;;;6.30;99.90;;;;;;5032328;28;20478;-57
2023/02/28 12:02:39;;;;;;;3.28;1.85;;;6.30;99.90;;;;;;5032778;28;20045;-56
2023/02/28 12:05:08;;;;;;;14.55;7.80;;;6.30;99.90;;;;;;5033357;28;20073;-57
2023/02/28 12:07:34;;;;;;;8.68;4.60;;;6.30;99.90;;;;;;5033287;28;20041;-56
2023/02/28 12:10:01;;;;;;;5.95;3.63;;;6.30;99.90;;;;;;5032895;28;20061;-57
2023/02/28 12:12:28;;;;;;;5.82;3.30;;;6.30;99.90;;;;;;5032330;28;20392;-51
2023/02/28 12:14:56;;;;;;;14.05;12.60;;;6.40;99.90;;;;;;5033475;28;20099;-51
2023/02/28 12:17:22;;;;;;;5.60;3.58;;;6.40;99.90;;;;;;5032978;28;20408;-52
2023/02/28 12:19:49;;;;;;;3.30;2.30;;;6.50;99.90;;;;;;5033053;28;20124;-51
2023/02/28 12:22:16;;;;;;;3.03;1.95;;;6.60;99.90;;;;;;5032276;28;20041;-54
2023/02/28 12:24:43;;;;;;;4.57;2.22;;;6.60;99.90;;;;;;5032987;28;20045;-53
2023/02/28 12:27:10;;;;;;;2.97;1.95;;;6.70;99.90;;;;;;5032811;28;20124;-53
2023/02/28 12:29:37;;;;;;;4.50;1.90;;;6.80;99.90;;;;;;5032935;28;20433;-56
2023/02/28 12:32:04;;;;;;;4.10;2.42;;;6.70;99.90;;;;;;5033134;28;20407;-54
2023/02/28 12:34:31;;;;;;;4.05;2.33;;;6.70;99.90;;;;;;5032797;28;20052;-53
2023/02/28 12:36:58;;;;;;;4.97;2.05;;;6.70;99.90;;;;;;5032251;28;20038;-57
2023/02/28 12:39:24;;;;;;;3.88;2.20;;;6.70;99.90;;;;;;5032105;28;20110;-57
2023/02/28 12:41:51;;;;;;;5.30;2.80;;;6.70;99.90;;;;;;5032429;28;20136;-52
2023/02/28 12:44:18;;;;;;;4.63;2.47;;;6.60;99.90;;;;;;5032394;28;20042;-56
2023/02/28 12:46:45;;;;;;;3.67;2.83;;;6.70;99.90;;;;;;5032342;28;20077;-54
2023/02/28 12:49:11;;;;;;;4.82;2.53;;;6.70;99.90;;;;;;5032354;28;20041;-51
2023/02/28 12:51:38;;;;;;;3.88;2.35;;;6.70;99.90;;;;;;5032949;28;20447;-53